sensor_id;sensor_type;location;lat;lon;timestamp;P1;durP1;ratioP1;P2;durP2;ratioP2
39750;SDS011;37579;51.074;17.004;2024-03-29T00:01:49;3.78;;;1.90;;
39750;SDS011;37579;51.074;17.004;2024-03-29T00:04:24;2.67;;;1.42;;
39750;SDS011;37579;51.074;17.004;2024-03-29T00:06:58;4.65;;;1.92;;
39750;SDS011;37579;51.074;17.004;2024-03-29T00:09:33;3.03;;;1.33;;
39750;SDS011;37579;51.074;17.004;2024-03-29T00:12:08;4.13;;;1.60;;
39750;SDS011;37579;51.074;17.004;2024-03-29T00:14:43;4.05;;;1.70;;
39750;SDS011;37579;51.074;17.004;2024-03-29T00:17:18;4.72;;;1.60;;
39750;SDS011;37579;51.074;17.004;2024-03-29T00:19:53;3.55;;;1.67;;
39750;SDS011;37579;51.074;17.004;2024-03-29T00:22:28;2.83;;;1.58;;
39750;SDS011;37579;51.074;17.004;2024-03-29T00:25:03;5.10;;;1.95;;
39750;SDS011;37579;51.074;17.004;2024-03-29T00:27:38;5.60;;;1.52;;
39750;SDS011;37579;51.074;17.004;2024-03-29T00:30:13;3.50;;;1.60;;
39750;SDS011;37579;51.074;17.004;2024-03-29T00:32:48;3.88;;;1.80;;
39750;SDS011;37579;51.074;17.004;2024-03-29T00:35:23;4.38;;;1.42;;
39750;SDS011;37579;51.074;17.004;2024-03-29T00:37:58;4.97;;;1.77;;
39750;SDS011;37579;51.074;17.004;2024-03-29T00:40:33;4.13;;;1.60;;
39750;SDS011;37579;51.074;17.004;2024-03-29T00:43:09;3.70;;;1.42;;
39750;SDS011;37579;51.074;17.004;2024-03-29T00:45:44;2.90;;;1.35;;
39750;SDS011;37579;51.074;17.004;2024-03-29T00:48:19;3.10;;;1.35;;
39750;SDS011;37579;51.074;17.004;2024-03-29T00:50:54;5.22;;;1.70;;
39750;SDS011;37579;51.074;17.004;2024-03-29T00:53:30;4.38;;;1.77;;
39750;SDS011;37579;51.074;17.004;2024-03-29T00:56:04;3.13;;;1.38;;
39750;SDS011;37579;51.074;17.004;2024-03-29T00:58:39;4.43;;;1.27;;
39750;SDS011;37579;51.074;17.004;2024-03-29T01:01:14;4.28;;;1.45;;
39750;SDS011;37579;51.074;17.004;2024-03-29T01:03:49;2.97;;;1.40;;
39750;SDS011;37579;51.074;17.004;2024-03-29T01:06:24;2.42;;;1.20;;
39750;SDS011;37579;51.074;17.004;2024-03-29T01:08:59;2.78;;;1.40;;
39750;SDS011;37579;51.074;17.004;2024-03-29T01:11:34;3.25;;;1.23;;
39750;SDS011;37579;51.074;17.004;2024-03-29T01:14:09;4.57;;;1.52;;
39750;SDS011;37579;51.074;17.004;2024-03-29T01:16:44;3.33;;;1.38;;
39750;SDS011;37579;51.074;17.004;2024-03-29T01:19:19;3.35;;;1.17;;
39750;SDS011;37579;51.074;17.004;2024-03-29T01:21:54;3.40;;;1.40;;
39750;SDS011;37579;51.074;17.004;2024-03-29T01:24:29;3.63;;;1.60;;
39750;SDS011;37579;51.074;17.004;2024-03-29T01:27:03;2.33;;;1.20;;
39750;SDS011;37579;51.074;17.004;2024-03-29T01:29:40;2.33;;;1.30;;
39750;SDS011;37579;51.074;17.004;2024-03-29T01:32:15;3.63;;;1.48;;
39750;SDS011;37579;51.074;17.004;2024-03-29T01:34:50;2.97;;;1.00;;
39750;SDS011;37579;51.074;17.004;2024-03-29T01:37:25;2.63;;;1.15;;
39750;SDS011;37579;51.074;17.004;2024-03-29T01:40:00;4.10;;;1.30;;
39750;SDS011;37579;51.074;17.004;2024-03-29T01:42:35;2.67;;;1.10;;
39750;SDS011;37579;51.074;17.004;2024-03-29T01:45:10;3.22;;;1.10;;
39750;SDS011;37579;51.074;17.004;2024-03-29T01:47:45;3.10;;;1.23;;
39750;SDS011;37579;51.074;17.004;2024-03-29T01:50:20;3.55;;;1.55;;
39750;SDS011;37579;51.074;17.004;2024-03-29T01:52:55;3.75;;;1.17;;
39750;SDS011;37579;51.074;17.004;2024-03-29T01:55:30;2.90;;;1.00;;
39750;SDS011;37579;51.074;17.004;2024-03-29T01:58:05;2.70;;;1.23;;
39750;SDS011;37579;51.074;17.004;2024-03-29T02:00:42;2.85;;;1.15;;
39750;SDS011;37579;51.074;17.004;2024-03-29T02:03:25;1.73;;;0.85;;
39750;SDS011;37579;51.074;17.004;2024-03-29T02:06:00;2.83;;;1.30;;
39750;SDS011;37579;51.074;17.004;2024-03-29T02:08:35;2.30;;;1.17;;
39750;SDS011;37579;51.074;17.004;2024-03-29T02:11:10;2.20;;;1.35;;
39750;SDS011;37579;51.074;17.004;2024-03-29T02:13:45;4.20;;;1.33;;
39750;SDS011;37579;51.074;17.004;2024-03-29T02:16:21;1.83;;;1.27;;
39750;SDS011;37579;51.074;17.004;2024-03-29T02:18:56;2.72;;;1.23;;
39750;SDS011;37579;51.074;17.004;2024-03-29T02:21:31;2.30;;;1.10;;
39750;SDS011;37579;51.074;17.004;2024-03-29T02:24:11;2.05;;;1.02;;
39750;SDS011;37579;51.074;17.004;2024-03-29T02:26:47;2.15;;;0.98;;
39750;SDS011;37579;51.074;17.004;2024-03-29T02:29:25;3.05;;;0.90;;
39750;SDS011;37579;51.074;17.004;2024-03-29T02:32:02;2.22;;;0.90;;
39750;SDS011;37579;51.074;17.004;2024-03-29T02:34:37;2.25;;;1.00;;
39750;SDS011;37579;51.074;17.004;2024-03-29T02:37:12;3.40;;;1.10;;
39750;SDS011;37579;51.074;17.004;2024-03-29T02:39:47;1.95;;;0.90;;
39750;SDS011;37579;51.074;17.004;2024-03-29T02:42:22;2.45;;;0.90;;
39750;SDS011;37579;51.074;17.004;2024-03-29T02:44:57;1.75;;;1.00;;
39750;SDS011;37579;51.074;17.004;2024-03-29T02:47:32;1.90;;;0.90;;
39750;SDS011;37579;51.074;17.004;2024-03-29T02:50:08;1.33;;;0.52;;
39750;SDS011;37579;51.074;17.004;2024-03-29T02:52:44;2.97;;;1.00;;
39750;SDS011;37579;51.074;17.004;2024-03-29T02:55:19;2.70;;;0.98;;
39750;SDS011;37579;51.074;17.004;2024-03-29T02:57:54;1.88;;;0.98;;
39750;SDS011;37579;51.074;17.004;2024-03-29T03:00:28;2.10;;;0.82;;
39750;SDS011;37579;51.074;17.004;2024-03-29T03:03:03;2.88;;;1.20;;
39750;SDS011;37579;51.074;17.004;2024-03-29T03:05:38;1.77;;;1.25;;
39750;SDS011;37579;51.074;17.004;2024-03-29T03:08:13;1.40;;;0.85;;
39750;SDS011;37579;51.074;17.004;2024-03-29T03:11:06;2.05;;;0.80;;
39750;SDS011;37579;51.074;17.004;2024-03-29T03:13:41;1.95;;;0.70;;
39750;SDS011;37579;51.074;17.004;2024-03-29T03:16:15;2.08;;;1.00;;
39750;SDS011;37579;51.074;17.004;2024-03-29T03:18:50;2.25;;;0.70;;
39750;SDS011;37579;51.074;17.004;2024-03-29T03:21:25;2.88;;;0.95;;
39750;SDS011;37579;51.074;17.004;2024-03-29T03:24:00;1.40;;;0.90;;
39750;SDS011;37579;51.074;17.004;2024-03-29T03:26:35;1.90;;;0.73;;
39750;SDS011;37579;51.074;17.004;2024-03-29T03:29:09;1.73;;;0.90;;
39750;SDS011;37579;51.074;17.004;2024-03-29T03:31:44;3.28;;;0.93;;
39750;SDS011;37579;51.074;17.004;2024-03-29T03:34:19;4.95;;;0.90;;
39750;SDS011;37579;51.074;17.004;2024-03-29T03:36:54;2.20;;;1.00;;
39750;SDS011;37579;51.074;17.004;2024-03-29T03:39:29;1.60;;;0.75;;
39750;SDS011;37579;51.074;17.004;2024-03-29T03:42:04;1.55;;;0.80;;
39750;SDS011;37579;51.074;17.004;2024-03-29T03:44:39;3.17;;;0.77;;
39750;SDS011;37579;51.074;17.004;2024-03-29T03:47:13;1.55;;;0.80;;
39750;SDS011;37579;51.074;17.004;2024-03-29T03:49:48;3.33;;;1.10;;
39750;SDS011;37579;51.074;17.004;2024-03-29T03:52:23;1.08;;;0.70;;
39750;SDS011;37579;51.074;17.004;2024-03-29T03:54:58;1.15;;;0.73;;
39750;SDS011;37579;51.074;17.004;2024-03-29T03:57:33;3.92;;;0.80;;
39750;SDS011;37579;51.074;17.004;2024-03-29T04:00:08;1.33;;;0.50;;
39750;SDS011;37579;51.074;17.004;2024-03-29T04:02:49;1.45;;;0.70;;
39750;SDS011;37579;51.074;17.004;2024-03-29T04:05:24;1.38;;;0.60;;
39750;SDS011;37579;51.074;17.004;2024-03-29T04:08:00;1.65;;;0.77;;
39750;SDS011;37579;51.074;17.004;2024-03-29T04:10:38;1.48;;;0.60;;
39750;SDS011;37579;51.074;17.004;2024-03-29T04:13:13;1.55;;;0.80;;
39750;SDS011;37579;51.074;17.004;2024-03-29T04:15:48;2.70;;;1.17;;
39750;SDS011;37579;51.074;17.004;2024-03-29T04:18:23;2.50;;;0.98;;
39750;SDS011;37579;51.074;17.004;2024-03-29T04:20:58;3.22;;;1.00;;
39750;SDS011;37579;51.074;17.004;2024-03-29T04:23:34;1.63;;;0.60;;
39750;SDS011;37579;51.074;17.004;2024-03-29T04:26:08;1.70;;;0.75;;
39750;SDS011;37579;51.074;17.004;2024-03-29T04:28:43;2.80;;;0.80;;
39750;SDS011;37579;51.074;17.004;2024-03-29T04:31:18;1.83;;;0.77;;
39750;SDS011;37579;51.074;17.004;2024-03-29T04:33:53;1.33;;;0.80;;
39750;SDS011;37579;51.074;17.004;2024-03-29T04:36:28;1.38;;;0.65;;
39750;SDS011;37579;51.074;17.004;2024-03-29T04:39:02;1.95;;;1.33;;
39750;SDS011;37579;51.074;17.004;2024-03-29T04:41:37;1.55;;;0.63;;
39750;SDS011;37579;51.074;17.004;2024-03-29T04:44:13;3.00;;;1.00;;
39750;SDS011;37579;51.074;17.004;2024-03-29T04:46:57;2.00;;;1.00;;
39750;SDS011;37579;51.074;17.004;2024-03-29T04:49:31;2.03;;;0.98;;
39750;SDS011;37579;51.074;17.004;2024-03-29T04:52:10;1.95;;;0.65;;
39750;SDS011;37579;51.074;17.004;2024-03-29T04:54:45;1.08;;;0.63;;
39750;SDS011;37579;51.074;17.004;2024-03-29T04:57:20;1.92;;;0.60;;
39750;SDS011;37579;51.074;17.004;2024-03-29T04:59:55;2.95;;;0.93;;
39750;SDS011;37579;51.074;17.004;2024-03-29T05:02:30;1.42;;;0.60;;
39750;SDS011;37579;51.074;17.004;2024-03-29T05:05:05;2.00;;;1.10;;
39750;SDS011;37579;51.074;17.004;2024-03-29T05:07:39;1.10;;;0.45;;
39750;SDS011;37579;51.074;17.004;2024-03-29T05:10:14;1.77;;;0.90;;
39750;SDS011;37579;51.074;17.004;2024-03-29T05:12:50;1.23;;;0.70;;
39750;SDS011;37579;51.074;17.004;2024-03-29T05:15:25;1.45;;;0.63;;
39750;SDS011;37579;51.074;17.004;2024-03-29T05:18:00;1.20;;;0.68;;
39750;SDS011;37579;51.074;17.004;2024-03-29T05:20:35;1.52;;;0.70;;
39750;SDS011;37579;51.074;17.004;2024-03-29T05:23:10;1.73;;;0.70;;
39750;SDS011;37579;51.074;17.004;2024-03-29T05:25:48;1.35;;;0.60;;
39750;SDS011;37579;51.074;17.004;2024-03-29T05:28:23;1.30;;;0.80;;
39750;SDS011;37579;51.074;17.004;2024-03-29T05:31:08;1.35;;;0.68;;
39750;SDS011;37579;51.074;17.004;2024-03-29T05:33:47;1.17;;;0.55;;
39750;SDS011;37579;51.074;17.004;2024-03-29T05:36:21;1.83;;;0.40;;
39750;SDS011;37579;51.074;17.004;2024-03-29T05:38:57;1.00;;;0.63;;
39750;SDS011;37579;51.074;17.004;2024-03-29T05:41:32;1.70;;;0.70;;
39750;SDS011;37579;51.074;17.004;2024-03-29T05:44:07;1.58;;;0.65;;
39750;SDS011;37579;51.074;17.004;2024-03-29T05:46:41;2.22;;;0.60;;
39750;SDS011;37579;51.074;17.004;2024-03-29T05:49:16;2.00;;;0.68;;
39750;SDS011;37579;51.074;17.004;2024-03-29T05:51:51;1.45;;;0.70;;
39750;SDS011;37579;51.074;17.004;2024-03-29T05:54:26;1.23;;;0.60;;
39750;SDS011;37579;51.074;17.004;2024-03-29T05:57:01;1.55;;;0.70;;
39750;SDS011;37579;51.074;17.004;2024-03-29T05:59:37;1.45;;;0.60;;
39750;SDS011;37579;51.074;17.004;2024-03-29T06:02:12;2.47;;;0.70;;
39750;SDS011;37579;51.074;17.004;2024-03-29T06:04:47;1.27;;;0.60;;
39750;SDS011;37579;51.074;17.004;2024-03-29T06:07:22;1.55;;;0.50;;
39750;SDS011;37579;51.074;17.004;2024-03-29T06:09:57;1.67;;;0.80;;
39750;SDS011;37579;51.074;17.004;2024-03-29T06:12:31;1.65;;;0.73;;
39750;SDS011;37579;51.074;17.004;2024-03-29T06:15:06;1.02;;;0.57;;
39750;SDS011;37579;51.074;17.004;2024-03-29T06:18:00;1.10;;;0.60;;
39750;SDS011;37579;51.074;17.004;2024-03-29T06:20:35;0.85;;;0.60;;
39750;SDS011;37579;51.074;17.004;2024-03-29T06:23:09;2.22;;;0.65;;
39750;SDS011;37579;51.074;17.004;2024-03-29T06:25:44;3.38;;;0.70;;
39750;SDS011;37579;51.074;17.004;2024-03-29T06:28:20;1.05;;;0.50;;
39750;SDS011;37579;51.074;17.004;2024-03-29T06:30:54;1.10;;;0.50;;
39750;SDS011;37579;51.074;17.004;2024-03-29T06:33:29;1.20;;;0.70;;
39750;SDS011;37579;51.074;17.004;2024-03-29T06:36:04;1.40;;;0.60;;
39750;SDS011;37579;51.074;17.004;2024-03-29T06:38:40;1.75;;;0.70;;
39750;SDS011;37579;51.074;17.004;2024-03-29T06:41:14;1.40;;;0.70;;
39750;SDS011;37579;51.074;17.004;2024-03-29T06:43:49;2.25;;;0.60;;
39750;SDS011;37579;51.074;17.004;2024-03-29T06:46:24;1.20;;;0.60;;
39750;SDS011;37579;51.074;17.004;2024-03-29T06:49:00;1.70;;;0.50;;
39750;SDS011;37579;51.074;17.004;2024-03-29T06:51:35;0.88;;;0.50;;
39750;SDS011;37579;51.074;17.004;2024-03-29T06:54:09;1.88;;;0.70;;
39750;SDS011;37579;51.074;17.004;2024-03-29T06:56:44;1.48;;;0.60;;
39750;SDS011;37579;51.074;17.004;2024-03-29T06:59:19;2.63;;;0.40;;
39750;SDS011;37579;51.074;17.004;2024-03-29T07:01:54;2.72;;;1.13;;
39750;SDS011;37579;51.074;17.004;2024-03-29T07:04:29;1.50;;;0.65;;
39750;SDS011;37579;51.074;17.004;2024-03-29T07:07:04;3.28;;;0.63;;
39750;SDS011;37579;51.074;17.004;2024-03-29T07:09:38;3.92;;;0.88;;
39750;SDS011;37579;51.074;17.004;2024-03-29T07:12:13;1.50;;;0.40;;
39750;SDS011;37579;51.074;17.004;2024-03-29T07:14:48;1.60;;;0.60;;
39750;SDS011;37579;51.074;17.004;2024-03-29T07:17:23;2.45;;;0.57;;
39750;SDS011;37579;51.074;17.004;2024-03-29T07:19:58;3.50;;;0.50;;
39750;SDS011;37579;51.074;17.004;2024-03-29T07:22:33;2.75;;;0.55;;
39750;SDS011;37579;51.074;17.004;2024-03-29T07:25:08;2.20;;;0.70;;
39750;SDS011;37579;51.074;17.004;2024-03-29T07:27:43;10.70;;;0.77;;
39750;SDS011;37579;51.074;17.004;2024-03-29T07:30:18;3.28;;;1.15;;
39750;SDS011;37579;51.074;17.004;2024-03-29T07:32:53;2.35;;;0.57;;
39750;SDS011;37579;51.074;17.004;2024-03-29T07:35:28;3.65;;;0.52;;
39750;SDS011;37579;51.074;17.004;2024-03-29T07:38:02;2.42;;;0.50;;
39750;SDS011;37579;51.074;17.004;2024-03-29T07:40:37;5.15;;;0.73;;
39750;SDS011;37579;51.074;17.004;2024-03-29T07:43:12;4.03;;;0.55;;
39750;SDS011;37579;51.074;17.004;2024-03-29T07:45:48;3.83;;;0.90;;
39750;SDS011;37579;51.074;17.004;2024-03-29T07:48:23;2.90;;;0.52;;
39750;SDS011;37579;51.074;17.004;2024-03-29T07:50:58;2.38;;;0.70;;
39750;SDS011;37579;51.074;17.004;2024-03-29T07:53:33;4.00;;;0.55;;
39750;SDS011;37579;51.074;17.004;2024-03-29T07:56:07;2.83;;;0.80;;
39750;SDS011;37579;51.074;17.004;2024-03-29T07:58:42;8.32;;;0.95;;
39750;SDS011;37579;51.074;17.004;2024-03-29T08:01:21;14.35;;;1.48;;
39750;SDS011;37579;51.074;17.004;2024-03-29T08:03:57;5.57;;;1.20;;
39750;SDS011;37579;51.074;17.004;2024-03-29T08:06:32;3.72;;;0.80;;
39750;SDS011;37579;51.074;17.004;2024-03-29T08:09:06;4.57;;;1.20;;
39750;SDS011;37579;51.074;17.004;2024-03-29T08:11:41;3.33;;;1.05;;
39750;SDS011;37579;51.074;17.004;2024-03-29T08:14:16;5.13;;;1.10;;
39750;SDS011;37579;51.074;17.004;2024-03-29T08:16:51;3.78;;;0.90;;
39750;SDS011;37579;51.074;17.004;2024-03-29T08:19:26;3.25;;;1.38;;
39750;SDS011;37579;51.074;17.004;2024-03-29T08:22:01;5.03;;;1.00;;
39750;SDS011;37579;51.074;17.004;2024-03-29T08:24:36;5.55;;;1.27;;
39750;SDS011;37579;51.074;17.004;2024-03-29T08:27:11;4.28;;;1.33;;
39750;SDS011;37579;51.074;17.004;2024-03-29T08:29:46;4.25;;;1.00;;
39750;SDS011;37579;51.074;17.004;2024-03-29T08:32:23;4.90;;;1.15;;
39750;SDS011;37579;51.074;17.004;2024-03-29T08:34:58;4.82;;;1.70;;
39750;SDS011;37579;51.074;17.004;2024-03-29T08:37:33;3.78;;;1.40;;
39750;SDS011;37579;51.074;17.004;2024-03-29T08:40:08;5.88;;;1.27;;
39750;SDS011;37579;51.074;17.004;2024-03-29T08:42:44;4.78;;;1.27;;
39750;SDS011;37579;51.074;17.004;2024-03-29T08:45:19;8.75;;;2.63;;
39750;SDS011;37579;51.074;17.004;2024-03-29T08:47:54;5.30;;;1.55;;
39750;SDS011;37579;51.074;17.004;2024-03-29T08:50:29;6.25;;;1.60;;
39750;SDS011;37579;51.074;17.004;2024-03-29T08:53:04;4.88;;;1.42;;
39750;SDS011;37579;51.074;17.004;2024-03-29T08:55:39;5.72;;;1.60;;
39750;SDS011;37579;51.074;17.004;2024-03-29T08:58:15;8.73;;;1.48;;
39750;SDS011;37579;51.074;17.004;2024-03-29T09:00:54;7.65;;;1.67;;
39750;SDS011;37579;51.074;17.004;2024-03-29T09:03:29;4.28;;;1.80;;
39750;SDS011;37579;51.074;17.004;2024-03-29T09:06:05;5.18;;;1.23;;
39750;SDS011;37579;51.074;17.004;2024-03-29T09:08:39;7.82;;;1.50;;
39750;SDS011;37579;51.074;17.004;2024-03-29T09:11:14;6.40;;;1.30;;
39750;SDS011;37579;51.074;17.004;2024-03-29T09:13:49;4.32;;;1.40;;
39750;SDS011;37579;51.074;17.004;2024-03-29T09:16:24;5.03;;;1.38;;
39750;SDS011;37579;51.074;17.004;2024-03-29T09:18:59;4.63;;;1.38;;
39750;SDS011;37579;51.074;17.004;2024-03-29T09:21:34;4.70;;;1.52;;
39750;SDS011;37579;51.074;17.004;2024-03-29T09:24:09;3.88;;;1.55;;
39750;SDS011;37579;51.074;17.004;2024-03-29T09:26:44;4.95;;;1.70;;
39750;SDS011;37579;51.074;17.004;2024-03-29T09:29:19;4.68;;;1.23;;
39750;SDS011;37579;51.074;17.004;2024-03-29T09:31:56;3.83;;;1.42;;
39750;SDS011;37579;51.074;17.004;2024-03-29T09:34:31;4.20;;;1.20;;
39750;SDS011;37579;51.074;17.004;2024-03-29T09:37:06;2.75;;;1.55;;
39750;SDS011;37579;51.074;17.004;2024-03-29T09:39:41;3.55;;;1.45;;
39750;SDS011;37579;51.074;17.004;2024-03-29T09:42:16;5.80;;;1.70;;
39750;SDS011;37579;51.074;17.004;2024-03-29T09:44:51;5.85;;;1.70;;
39750;SDS011;37579;51.074;17.004;2024-03-29T09:47:28;6.13;;;1.48;;
39750;SDS011;37579;51.074;17.004;2024-03-29T09:50:05;6.75;;;1.50;;
39750;SDS011;37579;51.074;17.004;2024-03-29T09:52:42;4.05;;;1.30;;
39750;SDS011;37579;51.074;17.004;2024-03-29T09:55:18;3.03;;;1.20;;
39750;SDS011;37579;51.074;17.004;2024-03-29T09:57:54;3.90;;;1.50;;
39750;SDS011;37579;51.074;17.004;2024-03-29T10:00:30;9.07;;;1.83;;
39750;SDS011;37579;51.074;17.004;2024-03-29T10:03:06;5.57;;;1.08;;
39750;SDS011;37579;51.074;17.004;2024-03-29T10:05:42;4.70;;;1.20;;
39750;SDS011;37579;51.074;17.004;2024-03-29T10:08:17;5.43;;;1.33;;
39750;SDS011;37579;51.074;17.004;2024-03-29T10:10:52;6.90;;;1.75;;
39750;SDS011;37579;51.074;17.004;2024-03-29T10:13:28;6.85;;;2.00;;
39750;SDS011;37579;51.074;17.004;2024-03-29T10:16:03;5.13;;;1.50;;
39750;SDS011;37579;51.074;17.004;2024-03-29T10:18:42;5.75;;;1.73;;
39750;SDS011;37579;51.074;17.004;2024-03-29T10:21:24;4.00;;;1.40;;
39750;SDS011;37579;51.074;17.004;2024-03-29T10:24:00;5.97;;;1.40;;
39750;SDS011;37579;51.074;17.004;2024-03-29T10:26:45;5.18;;;1.20;;
39750;SDS011;37579;51.074;17.004;2024-03-29T10:29:27;5.78;;;1.15;;
39750;SDS011;37579;51.074;17.004;2024-03-29T10:32:03;3.47;;;1.03;;
39750;SDS011;37579;51.074;17.004;2024-03-29T10:34:38;6.80;;;1.30;;
39750;SDS011;37579;51.074;17.004;2024-03-29T10:37:12;4.35;;;1.00;;
39750;SDS011;37579;51.074;17.004;2024-03-29T10:39:50;4.63;;;1.60;;
39750;SDS011;37579;51.074;17.004;2024-03-29T10:42:25;2.08;;;1.02;;
39750;SDS011;37579;51.074;17.004;2024-03-29T10:45:00;3.33;;;1.10;;
39750;SDS011;37579;51.074;17.004;2024-03-29T10:47:36;4.85;;;0.95;;
39750;SDS011;37579;51.074;17.004;2024-03-29T10:50:12;3.97;;;1.30;;
39750;SDS011;37579;51.074;17.004;2024-03-29T10:52:48;3.50;;;1.00;;
39750;SDS011;37579;51.074;17.004;2024-03-29T10:55:24;3.40;;;1.35;;
39750;SDS011;37579;51.074;17.004;2024-03-29T10:57:59;3.05;;;0.98;;
39750;SDS011;37579;51.074;17.004;2024-03-29T11:00:37;5.40;;;1.10;;
39750;SDS011;37579;51.074;17.004;2024-03-29T11:03:19;1.92;;;0.70;;
39750;SDS011;37579;51.074;17.004;2024-03-29T11:06:05;4.25;;;0.65;;
39750;SDS011;37579;51.074;17.004;2024-03-29T11:08:40;3.47;;;0.47;;
39750;SDS011;37579;51.074;17.004;2024-03-29T11:11:19;2.85;;;0.50;;
39750;SDS011;37579;51.074;17.004;2024-03-29T11:14:02;2.25;;;0.63;;
39750;SDS011;37579;51.074;17.004;2024-03-29T11:16:40;4.45;;;1.00;;
39750;SDS011;37579;51.074;17.004;2024-03-29T11:19:19;2.67;;;0.82;;
39750;SDS011;37579;51.074;17.004;2024-03-29T11:21:54;2.38;;;0.60;;
39750;SDS011;37579;51.074;17.004;2024-03-29T11:24:29;2.42;;;0.50;;
39750;SDS011;37579;51.074;17.004;2024-03-29T11:27:09;4.07;;;0.85;;
39750;SDS011;37579;51.074;17.004;2024-03-29T11:29:44;2.28;;;0.80;;
39750;SDS011;37579;51.074;17.004;2024-03-29T11:32:37;4.63;;;0.82;;
39750;SDS011;37579;51.074;17.004;2024-03-29T11:35:14;4.93;;;0.80;;
39750;SDS011;37579;51.074;17.004;2024-03-29T11:37:56;2.72;;;0.70;;
39750;SDS011;37579;51.074;17.004;2024-03-29T11:40:33;10.65;;;1.00;;
39750;SDS011;37579;51.074;17.004;2024-03-29T11:43:08;6.80;;;1.10;;
39750;SDS011;37579;51.074;17.004;2024-03-29T11:45:43;3.58;;;0.82;;
39750;SDS011;37579;51.074;17.004;2024-03-29T11:48:19;6.75;;;1.13;;
39750;SDS011;37579;51.074;17.004;2024-03-29T11:50:58;2.65;;;1.23;;
39750;SDS011;37579;51.074;17.004;2024-03-29T11:53:34;5.88;;;1.00;;
39750;SDS011;37579;51.074;17.004;2024-03-29T11:56:09;2.35;;;0.70;;
39750;SDS011;37579;51.074;17.004;2024-03-29T11:58:46;2.25;;;0.40;;
39750;SDS011;37579;51.074;17.004;2024-03-29T12:01:25;1.17;;;0.50;;
39750;SDS011;37579;51.074;17.004;2024-03-29T12:04:03;6.35;;;0.65;;
39750;SDS011;37579;51.074;17.004;2024-03-29T12:06:38;1.80;;;0.73;;
39750;SDS011;37579;51.074;17.004;2024-03-29T12:09:15;4.53;;;1.30;;
39750;SDS011;37579;51.074;17.004;2024-03-29T12:11:50;7.70;;;1.73;;
39750;SDS011;37579;51.074;17.004;2024-03-29T12:14:25;7.15;;;1.60;;
39750;SDS011;37579;51.074;17.004;2024-03-29T12:17:01;6.90;;;1.73;;
39750;SDS011;37579;51.074;17.004;2024-03-29T12:19:36;8.02;;;2.25;;
39750;SDS011;37579;51.074;17.004;2024-03-29T12:22:13;7.07;;;1.40;;
39750;SDS011;37579;51.074;17.004;2024-03-29T12:24:48;5.63;;;1.52;;
39750;SDS011;37579;51.074;17.004;2024-03-29T12:27:23;10.15;;;2.05;;
39750;SDS011;37579;51.074;17.004;2024-03-29T12:29:58;11.65;;;2.80;;
39750;SDS011;37579;51.074;17.004;2024-03-29T12:32:33;14.10;;;4.00;;
39750;SDS011;37579;51.074;17.004;2024-03-29T12:37:48;15.85;;;3.60;;
39750;SDS011;37579;51.074;17.004;2024-03-29T12:40:24;17.90;;;4.68;;
39750;SDS011;37579;51.074;17.004;2024-03-29T12:43:04;13.07;;;3.92;;
39750;SDS011;37579;51.074;17.004;2024-03-29T12:45:40;10.25;;;3.33;;
39750;SDS011;37579;51.074;17.004;2024-03-29T12:48:17;10.85;;;3.42;;
39750;SDS011;37579;51.074;17.004;2024-03-29T12:50:57;9.45;;;2.63;;
39750;SDS011;37579;51.074;17.004;2024-03-29T12:53:32;10.20;;;3.40;;
39750;SDS011;37579;51.074;17.004;2024-03-29T12:56:07;14.77;;;3.20;;
39750;SDS011;37579;51.074;17.004;2024-03-29T12:58:42;9.98;;;2.67;;
39750;SDS011;37579;51.074;17.004;2024-03-29T13:01:17;9.32;;;2.38;;
39750;SDS011;37579;51.074;17.004;2024-03-29T13:03:52;7.18;;;2.22;;
39750;SDS011;37579;51.074;17.004;2024-03-29T13:06:27;8.13;;;2.65;;
39750;SDS011;37579;51.074;17.004;2024-03-29T13:09:01;7.50;;;2.33;;
39750;SDS011;37579;51.074;17.004;2024-03-29T13:11:36;7.10;;;1.60;;
39750;SDS011;37579;51.074;17.004;2024-03-29T13:14:11;7.40;;;1.88;;
39750;SDS011;37579;51.074;17.004;2024-03-29T13:16:46;6.55;;;2.40;;
39750;SDS011;37579;51.074;17.004;2024-03-29T13:19:21;3.85;;;0.90;;
39750;SDS011;37579;51.074;17.004;2024-03-29T13:21:56;6.20;;;2.40;;
39750;SDS011;37579;51.074;17.004;2024-03-29T13:24:33;4.60;;;1.73;;
39750;SDS011;37579;51.074;17.004;2024-03-29T13:27:07;3.53;;;1.52;;
39750;SDS011;37579;51.074;17.004;2024-03-29T13:29:42;2.83;;;1.40;;
39750;SDS011;37579;51.074;17.004;2024-03-29T13:32:17;6.20;;;1.30;;
39750;SDS011;37579;51.074;17.004;2024-03-29T13:34:52;6.03;;;1.25;;
39750;SDS011;37579;51.074;17.004;2024-03-29T13:37:27;4.85;;;1.50;;
39750;SDS011;37579;51.074;17.004;2024-03-29T13:40:02;3.35;;;1.15;;
39750;SDS011;37579;51.074;17.004;2024-03-29T13:42:38;2.83;;;1.02;;
39750;SDS011;37579;51.074;17.004;2024-03-29T13:45:13;3.22;;;0.98;;
39750;SDS011;37579;51.074;17.004;2024-03-29T13:47:48;2.97;;;1.23;;
39750;SDS011;37579;51.074;17.004;2024-03-29T13:50:23;3.33;;;0.98;;
39750;SDS011;37579;51.074;17.004;2024-03-29T13:52:57;4.45;;;1.20;;
39750;SDS011;37579;51.074;17.004;2024-03-29T13:55:32;2.88;;;1.15;;
39750;SDS011;37579;51.074;17.004;2024-03-29T13:58:07;4.68;;;1.15;;
39750;SDS011;37579;51.074;17.004;2024-03-29T14:00:42;2.80;;;0.98;;
39750;SDS011;37579;51.074;17.004;2024-03-29T14:03:17;2.72;;;1.00;;
39750;SDS011;37579;51.074;17.004;2024-03-29T14:05:52;2.35;;;0.90;;
39750;SDS011;37579;51.074;17.004;2024-03-29T14:08:26;3.90;;;0.70;;
39750;SDS011;37579;51.074;17.004;2024-03-29T14:11:01;2.13;;;1.10;;
39750;SDS011;37579;51.074;17.004;2024-03-29T14:13:36;1.50;;;0.75;;
39750;SDS011;37579;51.074;17.004;2024-03-29T14:16:11;3.60;;;1.23;;
39750;SDS011;37579;51.074;17.004;2024-03-29T14:18:46;6.00;;;1.38;;
39750;SDS011;37579;51.074;17.004;2024-03-29T14:21:21;1.73;;;0.60;;
39750;SDS011;37579;51.074;17.004;2024-03-29T14:23:57;3.42;;;0.90;;
39750;SDS011;37579;51.074;17.004;2024-03-29T14:26:32;4.22;;;0.98;;
39750;SDS011;37579;51.074;17.004;2024-03-29T14:29:06;2.30;;;0.80;;
39750;SDS011;37579;51.074;17.004;2024-03-29T14:31:41;2.08;;;0.85;;
39750;SDS011;37579;51.074;17.004;2024-03-29T14:34:18;4.82;;;0.95;;
39750;SDS011;37579;51.074;17.004;2024-03-29T14:36:53;2.10;;;1.08;;
39750;SDS011;37579;51.074;17.004;2024-03-29T14:39:28;3.72;;;0.73;;
39750;SDS011;37579;51.074;17.004;2024-03-29T14:42:03;2.33;;;1.20;;
39750;SDS011;37579;51.074;17.004;2024-03-29T14:44:40;2.03;;;0.60;;
39750;SDS011;37579;51.074;17.004;2024-03-29T14:47:15;1.15;;;0.50;;
39750;SDS011;37579;51.074;17.004;2024-03-29T14:49:51;1.42;;;0.52;;
39750;SDS011;37579;51.074;17.004;2024-03-29T14:52:26;3.03;;;0.65;;
39750;SDS011;37579;51.074;17.004;2024-03-29T14:55:01;3.97;;;0.73;;
39750;SDS011;37579;51.074;17.004;2024-03-29T14:57:37;0.73;;;0.50;;
39750;SDS011;37579;51.074;17.004;2024-03-29T15:00:12;1.17;;;0.40;;
39750;SDS011;37579;51.074;17.004;2024-03-29T15:02:48;1.55;;;0.60;;
39750;SDS011;37579;51.074;17.004;2024-03-29T15:05:23;1.50;;;0.52;;
39750;SDS011;37579;51.074;17.004;2024-03-29T15:08:00;3.47;;;0.70;;
39750;SDS011;37579;51.074;17.004;2024-03-29T15:10:35;1.70;;;0.90;;
39750;SDS011;37579;51.074;17.004;2024-03-29T15:13:09;1.23;;;0.52;;
39750;SDS011;37579;51.074;17.004;2024-03-29T15:15:52;1.40;;;0.40;;
39750;SDS011;37579;51.074;17.004;2024-03-29T15:18:30;2.17;;;0.57;;
39750;SDS011;37579;51.074;17.004;2024-03-29T15:21:05;1.20;;;0.47;;
39750;SDS011;37579;51.074;17.004;2024-03-29T15:23:42;1.10;;;0.60;;
39750;SDS011;37579;51.074;17.004;2024-03-29T15:26:17;0.68;;;0.50;;